Time;durP1;ratioP1;P1;durP2;ratioP2;P2;SDS_P1;SDS_P2;PMS_P1;PMS_P2;Temp;Humidity;BMP_temperature;BMP_pressure;BME280_temperature;BME280_humidity;BME280_pressure;Samples;Min_cycle;Max_cycle;Signal;HPM_P1;HPM_P2
2021/09/23 00:02:24;;;;;;;22.88;7.43;;;;;;;9.39;92.78;102130.75;4904254;29;20032;-57
2021/09/23 00:04:50;;;;;;;17.42;6.90;;;;;;;9.42;92.56;102117.97;4901321;29;20027;-56
2021/09/23 00:07:18;;;;;;;21.20;7.38;;;;;;;9.30;93.05;102118.59;4903751;29;20084;-53
2021/09/23 00:09:43;;;;;;;14.43;6.45;;;;;;;9.28;94.16;102115.31;4903927;29;20080;-57
2021/09/23 00:12:09;;;;;;;29.20;8.38;;;;;;;9.21;95.41;102122.50;4901508;29;20145;-56
2021/09/23 00:14:34;;;;;;;19.75;7.28;;;;;;;9.20;95.46;102120.03;4902711;29;20029;-53
2021/09/23 00:17:00;;;;;;;20.52;6.80;;;;;;;9.15;95.20;102123.31;4900861;29;20036;-54
2021/09/23 00:19:26;;;;;;;20.92;7.57;;;;;;;9.20;94.66;102107.50;4900998;29;20028;-54
2021/09/23 00:21:51;;;;;;;21.00;7.13;;;;;;;9.23;94.21;102101.72;4904040;29;20050;-55
2021/09/23 00:24:17;;;;;;;21.75;8.02;;;;;;;9.21;95.33;102101.13;4905075;29;20487;-52
2021/09/23 00:26:42;;;;;;;24.42;8.60;;;;;;;9.19;94.71;102105.84;4904827;29;20488;-53
2021/09/23 00:29:08;;;;;;;25.17;8.32;;;;;;;9.12;94.46;102106.84;4903078;29;20045;-55
2021/09/23 00:31:34;;;;;;;16.73;7.95;;;;;;;9.01;95.41;102105.63;4906685;29;20499;-54
2021/09/23 00:34:00;;;;;;;23.33;8.25;;;;;;;8.95;96.87;102096.56;4904416;29;20525;-55
2021/09/23 00:36:25;;;;;;;20.45;8.00;;;;;;;8.95;96.41;102090.41;4903606;29;20176;-53
2021/09/23 00:38:51;;;;;;;19.42;8.05;;;;;;;9.01;95.99;102084.25;4903570;29;20044;-54
2021/09/23 00:41:17;;;;;;;17.90;7.72;;;;;;;9.02;95.68;102070.69;4901095;29;20029;-53
2021/09/23 00:43:42;;;;;;;27.73;9.10;;;;;;;9.07;95.61;102076.22;4898457;29;20488;-52
2021/09/23 00:46:08;;;;;;;23.67;8.35;;;;;;;9.06;95.49;102074.56;4901580;29;20040;-52
2021/09/23 00:48:33;;;;;;;21.38;8.35;;;;;;;9.04;96.05;102079.31;4902666;29;20551;-55
2021/09/23 00:50:59;;;;;;;24.48;8.30;;;;;;;9.04;96.38;102070.47;4900637;29;20087;-53
2021/09/23 00:53:25;;;;;;;22.35;8.05;;;;;;;9.07;95.21;102068.19;4906206;29;20024;-52
2021/09/23 00:55:51;;;;;;;18.63;8.48;;;;;;;9.08;96.13;102069.03;4903176;29;20087;-55
2021/09/23 00:58:17;;;;;;;21.65;8.05;;;;;;;9.11;95.51;102068.59;4903140;29;20052;-53
2021/09/23 01:00:43;;;;;;;21.83;7.97;;;;;;;9.14;95.44;102070.88;4903051;29;20079;-54
2021/09/23 01:03:12;;;;;;;23.48;9.35;;;;;;;9.16;95.68;102060.81;4899928;29;20020;-56
2021/09/23 01:05:38;;;;;;;15.60;7.63;;;;;;;9.17;96.10;102062.44;4901277;29;20135;-55
2021/09/23 01:08:04;;;;;;;17.25;7.57;;;;;;;9.16;95.59;102055.47;4902447;29;20036;-54
2021/09/23 01:10:29;;;;;;;20.73;8.75;;;;;;;9.17;95.04;102058.97;4902746;29;20168;-55
2021/09/23 01:12:55;;;;;;;19.85;8.88;;;;;;;9.18;94.93;102053.41;4903174;29;20629;-53
2021/09/23 01:15:21;;;;;;;21.00;8.27;;;;;;;9.22;95.29;102043.09;4899027;29;20496;-53
2021/09/23 01:17:47;;;;;;;21.65;9.48;;;;;;;9.19;95.48;102039.00;4902317;29;20037;-54
2021/09/23 01:20:14;;;;;;;15.73;7.97;;;;;;;9.20;96.51;102035.28;4905272;29;20529;-55
2021/09/23 01:22:40;;;;;;;25.15;9.65;;;;;;;9.26;95.08;102025.59;4904725;29;20040;-54
2021/09/23 01:25:06;;;;;;;19.63;9.05;;;;;;;9.28;95.27;102011.00;4904795;29;20058;-53
2021/09/23 01:27:33;;;;;;;25.00;9.50;;;;;;;9.33;95.66;102011.19;4899240;29;20117;-55
2021/09/23 01:29:59;;;;;;;24.77;10.05;;;;;;;9.34;95.78;102010.19;4902943;29;20036;-53
2021/09/23 01:32:25;;;;;;;21.05;10.25;;;;;;;9.35;96.50;102011.81;4901883;29;20085;-55
2021/09/23 01:34:50;;;;;;;21.80;9.57;;;;;;;9.36;95.84;102010.78;4902867;29;20020;-53
2021/09/23 01:37:16;;;;;;;26.80;8.80;;;;;;;9.36;95.86;102008.13;4905419;29;20403;-54
2021/09/23 01:39:42;;;;;;;20.40;8.43;;;;;;;9.31;97.08;102013.25;4899382;29;20036;-53
2021/09/23 01:42:08;;;;;;;14.57;8.20;;;;;;;9.33;96.65;102000.47;4901502;29;20040;-53
2021/09/23 01:44:34;;;;;;;21.63;10.25;;;;;;;9.34;96.76;102002.16;4899173;29;20368;-54
2021/09/23 01:47:00;;;;;;;21.10;9.57;;;;;;;9.34;96.17;101996.81;4904397;29;20283;-56
2021/09/23 01:49:25;;;;;;;20.65;9.32;;;;;;;9.35;96.02;101990.44;4904152;29;20549;-53
2021/09/23 01:51:51;;;;;;;25.63;10.43;;;;;;;9.32;96.10;101979.31;4903447;29;20028;-54
2021/09/23 01:54:16;;;;;;;20.92;10.20;;;;;;;9.31;96.50;101983.81;4903219;29;20050;-53
2021/09/23 01:56:42;;;;;;;26.60;10.60;;;;;;;9.35;95.91;101976.22;4899920;29;20032;-53
2021/09/23 01:59:08;;;;;;;21.83;10.80;;;;;;;9.36;95.86;101978.69;4902357;29;20032;-54
2021/09/23 02:01:34;;;;;;;25.55;11.63;;;;;;;9.29;96.36;101972.53;4902797;29;20028;-53
2021/09/23 02:03:59;;;;;;;18.48;10.10;;;;;;;9.34;96.22;101975.41;4899206;29;20083;-54
2021/09/23 02:06:26;;;;;;;24.58;11.25;;;;;;;9.37;96.37;101969.63;4900149;29;20028;-54
2021/09/23 02:08:51;;;;;;;25.23;10.00;;;;;;;9.45;95.90;101965.06;4900324;29;20068;-56
2021/09/23 02:11:17;;;;;;;25.33;12.40;;;;;;;9.34;97.24;101962.03;4900352;29;20432;-52
2021/09/23 02:13:43;;;;;;;22.42;11.55;;;;;;;9.39;96.58;101959.53;4898482;29;20088;-54
2021/09/23 02:16:11;;;;;;;25.17;12.38;;;;;;;9.36;96.68;101954.63;4899748;29;20028;-54
2021/09/23 02:18:37;;;;;;;29.15;14.05;;;;;;;9.37;95.94;101950.09;4904228;29;20563;-55
2021/09/23 02:21:02;;;;;;;24.88;13.27;;;;;;;9.36;96.34;101953.81;4902864;29;20107;-53
2021/09/23 02:23:28;;;;;;;31.17;15.18;;;;;;;9.29;97.88;101950.31;4901038;29;20115;-54
2021/09/23 02:25:53;;;;;;;32.10;15.40;;;;;;;9.25;98.64;101933.03;4899888;29;20482;-55
2021/09/23 02:28:19;;;;;;;33.58;15.55;;;;;;;9.19;100.00;101936.56;4896805;29;20036;-53
2021/09/23 02:30:44;;;;;;;35.05;15.32;;;;;;;9.24;98.78;101942.91;4901391;29;20038;-55
2021/09/23 02:33:10;;;;;;;30.67;14.30;;;;;;;9.26;98.59;101940.84;4897207;29;20064;-55
2021/09/23 02:35:35;;;;;;;27.60;13.85;;;;;;;9.35;97.72;101941.47;4897792;29;20028;-56
2021/09/23 02:38:01;;;;;;;33.40;15.43;;;;;;;9.33;98.63;101928.28;4900835;29;20059;-55
2021/09/23 02:40:26;;;;;;;33.80;15.27;;;;;;;9.35;98.22;101920.06;4901214;29;20486;-56
2021/09/23 02:42:52;;;;;;;31.83;15.35;;;;;;;9.37;99.01;101910.78;4897198;29;20183;-55
2021/09/23 02:45:18;;;;;;;30.30;15.43;;;;;;;9.42;98.13;101915.50;4903417;29;20028;-54
2021/09/23 02:47:43;;;;;;;31.80;15.63;;;;;;;9.43;98.51;101911.78;4897038;29;20045;-55
2021/09/23 02:50:10;;;;;;;31.45;16.52;;;;;;;9.42;98.46;101914.69;4900965;29;20059;-56
2021/09/23 02:52:36;;;;;;;30.17;15.38;;;;;;;9.46;98.09;101910.53;4900825;29;20036;-55
2021/09/23 02:55:02;;;;;;;26.73;15.38;;;;;;;9.46;98.27;101899.84;4900650;29;20411;-56
2021/09/23 02:57:28;;;;;;;35.28;17.30;;;;;;;9.34;99.50;101903.19;4902404;29;20096;-52
2021/09/23 02:59:54;;;;;;;41.00;17.88;;;;;;;9.29;99.68;101889.59;4899521;29;20108;-54
2021/09/23 03:02:19;;;;;;;29.33;16.63;;;;;;;9.30;99.16;101891.25;4898373;29;20052;-55
2021/09/23 03:04:44;;;;;;;40.00;17.15;;;;;;;9.26;99.29;101884.69;4900543;29;20035;-55
2021/09/23 03:07:10;;;;;;;27.88;15.07;;;;;;;9.33;98.64;101874.78;4898051;29;20039;-55
2021/09/23 03:09:36;;;;;;;33.78;16.98;;;;;;;9.32;98.65;101878.47;4903166;29;20024;-56
2021/09/23 03:12:02;;;;;;;33.47;17.25;;;;;;;9.33;98.24;101869.44;4900880;29;20024;-55
2021/09/23 03:14:27;;;;;;;36.67;18.33;;;;;;;9.35;98.25;101870.06;4899051;29;20460;-55
2021/09/23 03:16:53;;;;;;;27.15;16.17;;;;;;;9.34;98.44;101875.63;4897416;29;20024;-56
2021/09/23 03:19:19;;;;;;;30.27;15.90;;;;;;;9.32;98.23;101873.13;4902810;29;20021;-53
2021/09/23 03:21:44;;;;;;;34.63;17.00;;;;;;;9.34;97.98;101871.09;4899403;29;20036;-54
2021/09/23 03:24:10;;;;;;;36.45;19.80;;;;;;;9.37;97.54;101868.00;4897802;29;20035;-55
2021/09/23 03:26:37;;;;;;;41.95;19.85;;;;;;;9.35;98.76;101870.06;4902832;29;20423;-55
2021/09/23 03:29:06;;;;;;;29.15;17.58;;;;;;;9.33;98.42;101864.06;4901879;29;20079;-55
2021/09/23 03:31:33;;;;;;;35.85;18.08;;;;;;;9.32;98.38;101856.28;4908334;29;20124;-55
2021/09/23 03:33:58;;;;;;;38.53;18.58;;;;;;;9.36;98.55;101847.63;4898198;29;20031;-53
2021/09/23 03:36:24;;;;;;;40.10;20.63;;;;;;;9.42;98.38;101845.94;4905708;29;20364;-55
2021/09/23 03:38:52;;;;;;;37.80;20.60;;;;;;;9.48;97.74;101846.94;4900346;29;20039;-54
2021/09/23 03:41:19;;;;;;;42.58;20.13;;;;;;;9.42;98.40;101839.78;4896730;29;20032;-53
2021/09/23 03:43:44;;;;;;;40.00;19.45;;;;;;;9.45;97.80;101839.34;4898583;29;20028;-55
2021/09/23 03:46:10;;;;;;;45.70;21.13;;;;;;;9.37;98.43;101832.41;4901316;29;20241;-56
2021/09/23 03:48:35;;;;;;;39.33;18.50;;;;;;;9.29;99.02;101828.09;4903645;29;20082;-52
2021/09/23 03:51:01;;;;;;;45.28;21.27;;;;;;;9.27;99.06;101821.31;4900183;29;20036;-55
2021/09/23 03:53:26;;;;;;;43.63;21.40;;;;;;;9.21;99.38;101819.50;4901452;29;20042;-53
2021/09/23 03:55:52;;;;;;;38.58;20.95;;;;;;;9.24;99.13;101819.91;4900849;29;20772;-55
2021/09/23 03:58:17;;;;;;;44.92;21.95;;;;;;;9.23;99.68;101820.94;4897246;29;20030;-52
2021/09/23 04:00:43;;;;;;;43.88;23.17;;;;;;;9.28;99.52;101812.28;4912277;29;20035;-55
2021/09/23 04:03:09;;;;;;;46.58;23.70;;;;;;;9.19;100.00;101805.53;4899430;29;20028;-55
2021/09/23 04:05:34;;;;;;;46.75;23.33;;;;;;;9.23;100.00;101809.44;4903574;29;20028;-54
2021/09/23 04:08:01;;;;;;;47.55;25.52;;;;;;;9.27;100.00;101805.28;4905630;29;20403;-53
2021/09/23 04:10:27;;;;;;;53.40;26.50;;;;;;;9.28;100.00;101799.72;4898706;29;20115;-53
2021/09/23 04:12:55;;;;;;;44.67;24.63;;;;;;;9.31;100.00;101801.13;4900669;29;20578;-53
2021/09/23 04:15:22;;;;;;;52.28;26.88;;;;;;;9.34;99.77;101790.84;4901117;29;20562;-52
2021/09/23 04:17:47;;;;;;;57.45;27.02;;;;;;;9.37;99.29;101792.28;4895983;29;20048;-56
2021/09/23 04:20:13;;;;;;;48.72;25.45;;;;;;;9.38;99.74;101791.25;4898586;29;20024;-55
2021/09/23 04:22:38;;;;;;;58.78;25.13;;;;;;;9.38;99.61;101783.22;4895683;29;20123;-55
2021/09/23 04:25:04;;;;;;;59.20;27.73;;;;;;;9.42;99.94;101771.06;4899163;29;20985;-54
2021/09/23 04:27:29;;;;;;;60.03;29.33;;;;;;;9.48;100.00;101769.34;4895966;29;20766;-52
2021/09/23 04:29:55;;;;;;;66.63;31.73;;;;;;;9.58;100.00;101769.72;4901788;29;20063;-52
2021/09/23 04:32:21;;;;;;;61.08;29.52;;;;;;;9.71;100.00;101758.09;4902003;29;20031;-53
2021/09/23 04:34:46;;;;;;;59.92;29.48;;;;;;;9.77;100.00;101763.41;4897857;29;20067;-56
2021/09/23 04:37:12;;;;;;;57.42;28.90;;;;;;;9.88;99.87;101759.22;4901114;29;20088;-55
2021/09/23 04:39:37;;;;;;;60.05;28.40;;;;;;;9.92;100.00;101750.50;4906041;29;20275;-55
2021/09/23 04:42:03;;;;;;;65.55;29.45;;;;;;;10.03;100.00;101756.16;4906342;29;20752;-54
2021/09/23 04:44:28;;;;;;;58.90;31.20;;;;;;;10.05;100.00;101760.25;4904873;29;20653;-53
2021/09/23 04:46:54;;;;;;;59.55;28.60;;;;;;;10.07;100.00;101763.56;4906991;29;20031;-54
2021/09/23 04:49:20;;;;;;;64.00;30.98;;;;;;;10.13;100.00;101759.19;4900564;29;20063;-55
2021/09/23 04:51:47;;;;;;;56.33;29.63;;;;;;;10.15;100.00;101759.78;4904787;29;20173;-55
2021/09/23 04:54:13;;;;;;;67.90;32.30;;;;;;;10.15;100.00;101759.78;4907505;29;20035;-52
2021/09/23 04:56:39;;;;;;;63.25;30.42;;;;;;;10.18;100.00;101753.97;4901571;29;20020;-55
2021/09/23 04:59:04;;;;;;;53.33;27.50;;;;;;;10.23;100.00;101755.00;4901612;29;20586;-55
2021/09/23 05:01:30;;;;;;;57.92;28.48;;;;;;;10.28;100.00;101751.66;4905095;29;20043;-54
2021/09/23 05:03:56;;;;;;;59.97;30.63;;;;;;;10.33;100.00;101741.09;4902311;29;20024;-55
2021/09/23 05:06:21;;;;;;;60.97;30.17;;;;;;;10.34;100.00;101729.34;4902633;29;20091;-55
2021/09/23 05:08:47;;;;;;;57.78;30.25;;;;;;;10.37;100.00;101739.59;4907945;29;20047;-53
2021/09/23 05:11:12;;;;;;;60.03;30.42;;;;;;;10.34;100.00;101726.66;4904634;29;20054;-56
2021/09/23 05:13:38;;;;;;;59.33;29.35;;;;;;;10.44;99.38;101726.16;4908346;29;20115;-55
2021/09/23 05:16:04;;;;;;;60.88;31.00;;;;;;;10.32;100.00;101726.06;4906522;29;20305;-55
2021/09/23 05:18:30;;;;;;;61.13;30.30;;;;;;;10.39;100.00;101718.75;4901584;29;20036;-53
2021/09/23 05:20:56;;;;;;;65.68;31.73;;;;;;;10.42;99.80;101722.88;4902705;29;20088;-54
2021/09/23 05:23:21;;;;;;;66.00;32.88;;;;;;;10.41;99.66;101721.22;4905284;29;20694;-53
2021/09/23 05:25:47;;;;;;;60.10;31.17;;;;;;;10.41;99.69;101716.69;4902412;29;20031;-56
2021/09/23 05:28:12;;;;;;;65.22;31.48;;;;;;;10.37;100.00;101720.84;4905648;29;20055;-54
2021/09/23 05:30:39;;;;;;;59.65;30.52;;;;;;;10.43;100.00;101714.63;4904890;29;20039;-55
2021/09/23 05:33:06;;;;;;;61.92;30.58;;;;;;;10.47;99.49;101718.47;4904417;29;20034;-56
2021/09/23 05:35:32;;;;;;;64.72;30.52;;;;;;;10.48;100.00;101706.72;4903654;29;20036;-52
2021/09/23 05:37:57;;;;;;;61.70;32.35;;;;;;;10.53;99.86;101717.56;4902383;29;20096;-54
2021/09/23 05:40:23;;;;;;;64.03;31.77;;;;;;;10.52;100.00;101718.63;4897921;29;20142;-52
2021/09/23 05:42:48;;;;;;;62.42;32.13;;;;;;;10.55;100.00;101712.00;4899626;29;20483;-55
2021/09/23 05:45:14;;;;;;;64.28;30.98;;;;;;;10.61;99.85;101721.00;4899384;29;20081;-55
2021/09/23 05:47:41;;;;;;;66.63;32.42;;;;;;;10.64;100.00;101713.34;4905769;29;20538;-55
2021/09/23 05:50:09;;;;;;;67.68;32.60;;;;;;;10.68;99.95;101713.69;4896456;29;20689;-55
2021/09/23 05:52:35;;;;;;;57.88;30.25;;;;;;;10.77;99.71;101712.31;4901278;29;20024;-55
2021/09/23 05:55:01;;;;;;;62.60;32.00;;;;;;;10.81;99.20;101716.22;4903230;29;20039;-55
2021/09/23 05:57:33;;;;;;;60.47;31.63;;;;;;;10.94;98.86;101709.84;4903587;29;20676;-56
2021/09/23 06:00:10;;;;;;;62.38;31.48;;;;;;;11.02;98.50;101712.22;4901934;29;20034;-55
2021/09/23 06:02:36;;;;;;;56.70;30.52;;;;;;;11.13;98.11;101708.75;4919840;29;20055;-55
2021/09/23 06:05:02;;;;;;;64.72;32.08;;;;;;;11.26;97.26;101705.88;4901497;29;20044;-56
2021/09/23 06:07:27;;;;;;;56.42;30.02;;;;;;;11.38;96.90;101695.19;4908854;29;20044;-55
2021/09/23 06:09:53;;;;;;;56.65;29.95;;;;;;;11.45;96.69;101691.34;4899167;29;20036;-55
2021/09/23 06:12:18;;;;;;;55.72;30.30;;;;;;;11.57;96.01;101679.81;4896668;29;20052;-55
2021/09/23 06:14:44;;;;;;;52.90;28.83;;;;;;;11.64;96.25;101684.03;4898866;29;20043;-55
2021/09/23 06:17:09;;;;;;;54.80;30.70;;;;;;;11.77;95.53;101675.75;4897841;29;20144;-55
2021/09/23 06:19:35;;;;;;;54.55;30.52;;;;;;;11.69;95.36;101675.28;4901904;29;20269;-55
2021/09/23 06:22:00;;;;;;;55.92;29.55;;;;;;;11.85;95.07;101676.47;4898676;29;20059;-55
2021/09/23 06:24:26;;;;;;;48.00;27.45;;;;;;;11.99;94.13;101673.31;4899393;29;20033;-55
2021/09/23 06:26:51;;;;;;;56.95;29.30;;;;;;;11.96;94.51;101671.09;4902125;29;20076;-55
2021/09/23 06:29:17;;;;;;;53.92;28.65;;;;;;;11.96;94.06;101670.28;4901187;29;20189;-55
2021/09/23 06:31:43;;;;;;;52.92;28.30;;;;;;;12.06;93.33;101662.47;4899548;29;20590;-55
2021/09/23 06:34:08;;;;;;;51.55;27.67;;;;;;;12.00;93.39;101663.38;4897546;29;20024;-54
2021/09/23 06:36:35;;;;;;;55.83;29.00;;;;;;;12.00;93.86;101666.88;4897743;29;20029;-53
2021/09/23 06:39:04;;;;;;;54.53;27.00;;;;;;;12.16;93.16;101672.59;4898085;29;20092;-52
2021/09/23 06:41:31;;;;;;;54.15;28.58;;;;;;;12.19;93.37;101664.06;4898951;29;20483;-54
2021/09/23 06:43:56;;;;;;;51.75;29.20;;;;;;;12.29;92.70;101658.91;4902685;29;20047;-55
2021/09/23 06:46:22;;;;;;;55.05;30.35;;;;;;;12.26;93.44;101654.84;4897017;29;20269;-55
2021/09/23 06:48:50;;;;;;;55.15;28.77;;;;;;;12.38;92.50;101655.59;4899006;29;20039;-55
2021/09/23 06:51:15;;;;;;;56.97;29.92;;;;;;;12.36;92.39;101656.91;4897321;29;20159;-55
2021/09/23 06:53:41;;;;;;;54.20;29.15;;;;;;;12.44;91.73;101650.34;4897994;29;20040;-53
2021/09/23 06:56:07;;;;;;;51.63;26.20;;;;;;;12.38;91.93;101642.16;4896944;29;20487;-56
2021/09/23 06:58:32;;;;;;;53.72;28.88;;;;;;;12.48;91.44;101635.38;4907509;29;20028;-54
2021/09/23 07:00:58;;;;;;;47.78;27.65;;;;;;;12.49;91.06;101627.06;4896657;29;20032;-55
2021/09/23 07:03:23;;;;;;;51.95;28.60;;;;;;;12.47;91.05;101628.38;4895860;29;20028;-54
2021/09/23 07:05:49;;;;;;;50.88;27.50;;;;;;;12.58;90.58;101635.59;4897998;29;20040;-55
2021/09/23 07:08:17;;;;;;;48.83;26.52;;;;;;;12.74;90.08;101625.91;4895757;29;20114;-52
2021/09/23 07:10:43;;;;;;;44.67;24.83;;;;;;;12.91;89.37;101621.38;4897924;29;20134;-54
2021/09/23 07:13:09;;;;;;;48.03;26.08;;;;;;;13.08;88.68;101616.03;4896284;29;20021;-54
2021/09/23 07:15:34;;;;;;;54.40;28.10;;;;;;;13.00;88.83;101612.69;4895755;29;20021;-55
2021/09/23 07:18:00;;;;;;;45.97;26.38;;;;;;;13.06;88.29;101610.09;4896049;29;20410;-55
2021/09/23 07:20:26;;;;;;;53.15;26.05;;;;;;;12.96;87.93;101610.75;4895360;29;20377;-55
2021/09/23 07:22:52;;;;;;;51.63;28.00;;;;;;;13.06;87.95;101616.28;4896218;29;20024;-55
2021/09/23 07:25:20;;;;;;;50.05;26.92;;;;;;;13.26;86.89;101613.94;4899566;29;20277;-55
2021/09/23 07:27:45;;;;;;;50.90;26.50;;;;;;;13.45;85.87;101616.38;4897502;29;20027;-55
2021/09/23 07:30:11;;;;;;;45.72;25.85;;;;;;;13.72;84.39;101597.69;4897942;29;20032;-52
2021/09/23 07:32:37;;;;;;;45.35;25.85;;;;;;;13.87;84.01;101589.81;4910703;29;20076;-55
2021/09/23 07:35:03;;;;;;;41.47;24.70;;;;;;;14.26;83.00;101578.97;4909408;29;20518;-56
2021/09/23 07:37:28;;;;;;;41.67;20.88;;;;;;;14.46;81.79;101566.56;4910567;29;20448;-55
2021/09/23 07:39:54;;;;;;;40.55;23.45;;;;;;;14.52;80.71;101570.09;4904982;29;20128;-55
2021/09/23 07:42:20;;;;;;;41.08;21.23;;;;;;;14.58;79.84;101561.03;4908406;29;20092;-55
2021/09/23 07:44:45;;;;;;;43.40;23.52;;;;;;;14.75;78.91;101566.31;4903121;29;20053;-53
2021/09/23 07:47:11;;;;;;;40.63;23.17;;;;;;;14.98;76.93;101579.47;4907570;29;20090;-55
2021/09/23 07:49:36;;;;;;;40.55;22.75;;;;;;;15.20;75.63;101573.97;4909995;29;20294;-52
2021/09/23 07:52:02;;;;;;;43.55;23.60;;;;;;;15.31;74.38;101572.97;4906909;29;20028;-55
2021/09/23 07:54:27;;;;;;;38.75;22.13;;;;;;;15.40;73.63;101566.00;4910679;29;20042;-55
2021/09/23 07:56:53;;;;;;;40.08;22.77;;;;;;;15.71;73.90;101566.22;4907279;29;20419;-55
2021/09/23 07:59:18;;;;;;;37.13;22.02;;;;;;;15.78;73.37;101560.56;4908642;29;20041;-55
2021/09/23 08:01:44;;;;;;;36.05;22.08;;;;;;;15.92;72.80;101548.22;4912743;29;20375;-55
2021/09/23 08:04:10;;;;;;;44.30;21.92;;;;;;;15.84;71.85;101540.63;4907757;29;20043;-55
2021/09/23 08:06:35;;;;;;;41.90;22.63;;;;;;;15.60;72.09;101538.31;4910498;29;20494;-54
2021/09/23 08:09:01;;;;;;;41.83;22.98;;;;;;;15.51;72.47;101528.25;4903483;29;20040;-55
2021/09/23 08:11:27;;;;;;;40.10;21.70;;;;;;;15.52;72.99;101533.41;4910406;29;20039;-56
2021/09/23 08:13:52;;;;;;;34.10;18.88;;;;;;;15.55;71.84;101526.66;4910066;29;20028;-56
2021/09/23 08:16:18;;;;;;;38.03;22.50;;;;;;;15.35;71.94;101517.38;4910529;29;20031;-54
2021/09/23 08:18:43;;;;;;;37.75;21.65;;;;;;;15.46;71.86;101517.44;4916485;29;20118;-56
2021/09/23 08:21:09;;;;;;;43.95;21.35;;;;;;;15.24;72.12;101507.56;4912300;29;20069;-54
2021/09/23 08:23:35;;;;;;;38.80;20.00;;;;;;;15.39;71.77;101498.75;4912859;29;20052;-54
2021/09/23 08:26:01;;;;;;;34.65;19.55;;;;;;;15.41;71.26;101502.00;4913852;29;20087;-55
2021/09/23 08:28:27;;;;;;;35.20;21.05;;;;;;;15.55;70.99;101481.56;4916237;29;20490;-55
2021/09/23 08:30:55;;;;;;;39.08;22.10;;;;;;;15.40;69.02;101474.19;4911954;29;20403;-55
2021/09/23 08:33:21;;;;;;;40.08;20.27;;;;;;;15.73;69.27;101469.50;4915171;29;20052;-55
2021/09/23 08:35:46;;;;;;;34.83;20.58;;;;;;;16.07;68.87;101459.06;4913241;29;21435;-56
2021/09/23 08:38:12;;;;;;;36.10;19.88;;;;;;;16.16;67.47;101451.25;4925751;29;20039;-54
2021/09/23 08:40:40;;;;;;;32.72;18.33;;;;;;;16.10;67.57;101444.19;4912357;29;20513;-54
2021/09/23 08:43:06;;;;;;;35.40;20.02;;;;;;;16.10;67.54;101447.72;4909540;29;20574;-54
2021/09/23 08:45:31;;;;;;;34.30;20.27;;;;;;;16.02;66.73;101454.47;4913631;29;20019;-55
2021/09/23 08:47:57;;;;;;;36.70;18.50;;;;;;;16.06;67.33;101443.13;4910956;29;20116;-56
2021/09/23 08:50:22;;;;;;;35.83;19.63;;;;;;;16.05;67.00;101446.91;4915286;29;20114;-53
2021/09/23 08:52:48;;;;;;;34.67;17.55;;;;;;;16.09;67.03;101431.75;4911981;29;20485;-53
2021/09/23 08:55:22;;;;;;;31.92;18.90;;;;;;;16.00;66.90;101440.41;4908395;29;20523;-56
2021/09/23 08:57:47;;;;;;;31.25;18.55;;;;;;;16.16;66.50;101443.97;4908325;29;20644;-57
2021/09/23 09:00:14;;;;;;;32.33;19.83;;;;;;;16.04;65.93;101435.28;4911706;29;20027;-55
2021/09/23 09:02:39;;;;;;;32.08;16.77;;;;;;;16.15;66.62;101436.09;4912550;29;20032;-56
2021/09/23 09:05:05;;;;;;;30.33;16.73;;;;;;;16.16;66.18;101432.34;4910617;29;20083;-55
2021/09/23 09:07:31;;;;;;;35.55;19.23;;;;;;;16.35;66.53;101427.22;4908664;29;20052;-55
2021/09/23 09:10:02;;;;;;;31.92;18.15;;;;;;;16.23;66.50;101440.97;4904700;29;20032;-53
2021/09/23 09:12:29;;;;;;;35.85;18.77;;;;;;;16.45;65.23;101433.41;4914685;29;20031;-56
2021/09/23 09:14:55;;;;;;;31.30;18.38;;;;;;;16.56;64.51;101434.25;4911052;29;20030;-55
2021/09/23 09:17:20;;;;;;;33.83;18.65;;;;;;;16.65;64.82;101427.19;4914548;29;20028;-55
2021/09/23 09:19:52;;;;;;;27.55;16.52;;;;;;;16.68;64.71;101426.66;4913183;29;20455;-54
2021/09/23 09:22:21;;;;;;;25.25;16.42;;;;;;;16.58;64.55;101416.66;4912214;29;20043;-56
2021/09/23 09:24:54;;;;;;;27.90;16.92;;;;;;;16.78;64.63;101415.84;4909994;29;20036;-55
2021/09/23 09:27:39;;;;;;;32.03;16.17;;;;;;;16.72;64.84;101418.84;4912965;29;20038;-54
2021/09/23 09:30:08;;;;;;;37.03;16.65;;;;;;;16.94;63.80;101413.94;4904736;29;20391;-54
2021/09/23 09:32:48;;;;;;;28.27;15.88;;;;;;;17.13;63.09;101406.84;4910290;29;20416;-53
2021/09/23 09:35:24;;;;;;;31.90;16.75;;;;;;;17.37;62.69;101401.59;4913135;29;20036;-53
2021/09/23 09:37:51;;;;;;;31.00;16.45;;;;;;;17.46;62.35;101393.72;4909261;29;20483;-54
2021/09/23 09:40:19;;;;;;;30.30;16.48;;;;;;;17.61;62.23;101379.28;4911200;29;20088;-54
2021/09/23 09:42:49;;;;;;;27.40;14.30;;;;;;;17.41;61.77;101377.47;4909025;29;20503;-56
2021/09/23 09:45:21;;;;;;;25.35;14.50;;;;;;;17.37;62.47;101376.41;4911482;29;20044;-55
2021/09/23 09:47:53;;;;;;;20.88;13.02;;;;;;;17.72;61.19;101373.53;4911194;29;20036;-55
2021/09/23 09:50:42;;;;;;;23.58;13.07;;;;;;;17.57;61.21;101370.06;4914424;29;20119;-55
2021/09/23 09:53:09;;;;;;;21.85;13.23;;;;;;;17.34;62.02;101375.06;4906024;29;20032;-55
2021/09/23 09:55:39;;;;;;;25.63;14.43;;;;;;;17.16;62.54;101360.25;4913206;29;20030;-53
2021/09/23 09:58:06;;;;;;;23.02;14.43;;;;;;;17.07;62.07;101353.78;4913920;29;20111;-53
2021/09/23 10:00:33;;;;;;;23.23;13.60;;;;;;;17.33;62.16;101340.13;4910710;29;20486;-56
2021/09/23 10:02:59;;;;;;;22.65;12.55;;;;;;;17.49;61.69;101337.06;4911047;29;20484;-53
2021/09/23 10:05:25;;;;;;;24.80;13.98;;;;;;;17.37;61.33;101322.22;4909405;29;20064;-52
2021/09/23 10:07:54;;;;;;;25.40;12.88;;;;;;;17.30;61.73;101321.75;4904233;29;20251;-56
2021/09/23 10:10:24;;;;;;;28.60;14.43;;;;;;;17.13;62.12;101322.09;4908598;29;20123;-55
2021/09/23 10:12:54;;;;;;;27.30;14.60;;;;;;;17.30;61.78;101310.91;4907200;29;20565;-57
2021/09/23 10:15:19;;;;;;;21.90;14.10;;;;;;;17.25;62.08;101300.91;4908364;29;20029;-55
2021/09/23 10:17:48;;;;;;;19.52;13.40;;;;;;;17.15;62.74;101309.88;4909009;29;20075;-53
2021/09/23 10:20:21;;;;;;;19.88;11.18;;;;;;;17.27;62.26;101289.81;4909105;29;20028;-55
2021/09/23 10:22:47;;;;;;;20.92;13.55;;;;;;;17.24;62.75;101284.94;4908575;29;20515;-55
2021/09/23 10:25:22;;;;;;;20.92;13.13;;;;;;;17.48;61.84;101277.75;4907161;29;20044;-53
2021/09/23 10:27:58;;;;;;;26.48;12.63;;;;;;;17.17;62.71;101280.63;4910039;29;20037;-53
2021/09/23 10:30:31;;;;;;;22.48;12.38;;;;;;;17.25;62.46;101281.97;4913026;29;20036;-55
2021/09/23 10:32:59;;;;;;;22.27;12.75;;;;;;;17.51;61.91;101264.44;4901965;29;20035;-52
2021/09/23 10:35:25;;;;;;;21.52;11.18;;;;;;;17.42;61.63;101260.72;4905753;29;20440;-54
2021/09/23 10:37:56;;;;;;;16.10;11.27;;;;;;;17.62;61.17;101257.06;4905861;29;20035;-54
2021/09/23 10:40:22;;;;;;;20.58;12.60;;;;;;;17.55;61.48;101253.84;4906304;29;20131;-53
2021/09/23 10:42:50;;;;;;;21.55;11.73;;;;;;;17.61;60.92;101263.56;4901423;29;20040;-55
2021/09/23 10:45:25;;;;;;;19.90;12.15;;;;;;;17.83;60.70;101248.78;4904335;29;20145;-55
2021/09/23 10:47:53;;;;;;;;;;;;;;;17.72;60.90;101246.16;4903324;29;20079;-53
2021/09/23 10:50:24;;;;;;;17.30;10.95;;;;;;;17.97;60.29;101244.34;4900397;29;19950;-53
2021/09/23 10:52:50;;;;;;;17.65;11.80;;;;;;;17.78;60.66;101236.91;4899033;29;20024;-56
2021/09/23 10:55:16;;;;;;;16.35;10.10;;;;;;;17.88;60.75;101235.19;4898144;29;20434;-53
2021/09/23 10:57:43;;;;;;;19.10;11.10;;;;;;;17.89;61.32;101240.31;4901883;29;20185;-53
2021/09/23 11:00:10;;;;;;;18.00;10.75;;;;;;;17.85;60.64;101235.75;4900893;29;20747;-54
2021/09/23 11:02:36;;;;;;;18.13;10.80;;;;;;;17.78;60.55;101234.19;4902524;29;20070;-53
2021/09/23 11:05:05;;;;;;;19.40;11.82;;;;;;;17.58;61.24;101236.22;4902964;29;20115;-53
2021/09/23 11:07:33;;;;;;;17.17;9.68;;;;;;;17.51;61.70;101225.72;4902349;29;20032;-54
2021/09/23 11:10:04;;;;;;;19.25;11.80;;;;;;;17.20;61.76;101222.41;4900780;29;20032;-54
2021/09/23 11:12:31;;;;;;;21.15;11.77;;;;;;;17.07;62.15;101210.31;4916745;29;20024;-54